Map

Track Data

SID SEASON NUMBER BASIN SUBBASIN NAME ISO_TIME NATURE LAT LON WMO_WIND WMO_PRES WMO_AGENCY TRACK_TYPE DIST2LAND LANDFALL IFLAG USA_AGENCY USA_ATCF_ID USA_LAT USA_LON USA_RECORD USA_STATUS USA_WIND USA_PRES USA_SSHS USA_R34_NE USA_R34_SE USA_R34_SW USA_R34_NW USA_R50_NE USA_R50_SE USA_R50_SW USA_R50_NW USA_R64_NE USA_R64_SE USA_R64_SW USA_R64_NW USA_POCI USA_ROCI USA_RMW USA_EYE TOKYO_LAT TOKYO_LON TOKYO_GRADE TOKYO_WIND TOKYO_PRES TOKYO_R50_DIR TOKYO_R50_LONG TOKYO_R50_SHORT TOKYO_R30_DIR TOKYO_R30_LONG TOKYO_R30_SHORT TOKYO_LAND CMA_LAT CMA_LON CMA_CAT CMA_WIND CMA_PRES HKO_LAT HKO_LON HKO_CAT HKO_WIND HKO_PRES NEWDELHI_LAT NEWDELHI_LON NEWDELHI_GRADE NEWDELHI_WIND NEWDELHI_PRES NEWDELHI_CI NEWDELHI_DP NEWDELHI_POCI REUNION_LAT REUNION_LON REUNION_TYPE REUNION_WIND REUNION_PRES REUNION_TNUM REUNION_CI REUNION_RMW REUNION_R34_NE REUNION_R34_SE REUNION_R34_SW REUNION_R34_NW REUNION_R50_NE REUNION_R50_SE REUNION_R50_SW REUNION_R50_NW REUNION_R64_NE REUNION_R64_SE REUNION_R64_SW REUNION_R64_NW BOM_LAT BOM_LON BOM_TYPE BOM_WIND BOM_PRES BOM_TNUM BOM_CI BOM_RMW BOM_R34_NE BOM_R34_SE BOM_R34_SW BOM_R34_NW BOM_R50_NE BOM_R50_SE BOM_R50_SW BOM_R50_NW BOM_R64_NE BOM_R64_SE BOM_R64_SW BOM_R64_NW BOM_ROCI BOM_POCI BOM_EYE BOM_POS_METHOD BOM_PRES_METHOD NADI_LAT NADI_LON NADI_CAT NADI_WIND NADI_PRES WELLINGTON_LAT WELLINGTON_LON WELLINGTON_WIND WELLINGTON_PRES DS824_LAT DS824_LON DS824_STAGE DS824_WIND DS824_PRES TD9636_LAT TD9636_LON TD9636_STAGE TD9636_WIND TD9636_PRES TD9635_LAT TD9635_LON TD9635_WIND TD9635_PRES TD9635_ROCI NEUMANN_LAT NEUMANN_LON NEUMANN_CLASS NEUMANN_WIND NEUMANN_PRES MLC_LAT MLC_LON MLC_CLASS MLC_WIND MLC_PRES USA_GUST BOM_GUST BOM_GUST_PER REUNION_GUST REUNION_GUST_PER USA_SEAHGT USA_SEARAD_NE USA_SEARAD_SE USA_SEARAD_SW USA_SEARAD_NW STORM_SPEED STORM_DIR
1975328N09085 1975 138 NI BB NOT_NAMED 1975-11-24 00:00:00 TS 8.80000 84.9000 main 366 321 O________OO___ jtwc_io IO201975 8.80000 84.9000 -1 8.80000 84.9000 TC 8.80000 84.9000 1 14 295
1975328N09085 1975 138 NI BB NOT_NAMED 1975-11-24 03:00:00 TS 9.10256 84.2374 main 311 272 P________PP___ IO201975 9.11033 84.2103 -1 9.11033 84.2103 TC 9.08701 84.2916 1 14 295
1975328N09085 1975 138 NI BB NOT_NAMED 1975-11-24 06:00:00 TS 9.38958 83.6387 main 266 239 O________OP___ jtwc_io IO201975 9.40000 83.6000 -1 9.40000 83.6000 TC 9.36876 83.7161 1 12 297
1975328N09085 1975 138 NI BB NOT_NAMED 1975-11-24 09:00:00 TS 9.65194 83.1574 main 245 221 P________PP___ IO201975 9.65737 83.1324 -1 9.65737 83.1324 TC 9.64107 83.2075 1 10 302
1975328N09085 1975 138 NI BB NOT_NAMED 1975-11-24 12:00:00 TS 9.90000 82.8000 main 221 211 O________OO___ jtwc_io IO201975 9.90000 82.8000 -1 9.90000 82.8000 TC 9.90000 82.8000 1 8 310
1975328N09085 1975 138 NI BB NOT_NAMED 1975-11-24 15:00:00 TS 10.1526 82.5469 main 211 208 P________PP___ IO201975 10.1574 82.5624 -1 10.1574 82.5624 TC 10.1429 82.5159 1 6 320
1975328N09085 1975 138 NI BB NOT_NAMED 1975-11-24 18:00:00 TS 10.3906 82.3765 main 214 205 O________OP___ jtwc_io IO201975 10.4000 82.4000 -1 10.4000 82.4000 TC 10.3719 82.3295 1 6 325
1975328N09085 1975 138 NI BB NOT_NAMED 1975-11-24 21:00:00 TS 10.6016 82.2295 main 211 211 P________PP___ IO201975 10.6075 82.2425 -1 10.6075 82.2425 TC 10.5900 82.2035 1 5 326
1975328N09085 1975 138 NI BB NOT_NAMED 1975-11-25 00:00:00 TS 10.8000 82.1000 main 220 220 O________OO___ jtwc_io IO201975 10.8000 82.1000 -1 10.8000 82.1000 TC 10.8000 82.1000 2 5 325
1975328N09085 1975 138 NI BB NOT_NAMED 1975-11-25 03:00:00 TS 11.0051 81.9431 main 218 207 P________PP___ IO201975 11.0000 81.9425 -1 11.0000 81.9425 TC 11.0153 81.9444 2 5 324
1975328N09085 1975 138 NI BB NOT_NAMED 1975-11-25 06:00:00 TS 11.2075 81.8017 main 207 196 O________OP___ jtwc_io IO201975 11.2000 81.8000 XX 35 -5 11.2000 81.8000 TC 35 11.2225 81.8050 2 5 328
1975328N09085 1975 138 NI BB NOT_NAMED 1975-11-25 09:00:00 TS 11.4111 81.6860 main 197 182 P________PP___ IO201975 11.4075 81.6850 XX 35 -5 11.4075 81.6850 TC 35 11.4184 81.6881 2 4 333
1975328N09085 1975 138 NI BB NOT_NAMED 1975-11-25 12:00:00 TS 11.6000 81.6000 main 182 161 O________OO___ jtwc_io IO201975 11.6000 81.6000 XX 35 -5 11.6000 81.6000 TC 35 11.6000 81.6000 2 4 337
1975328N09085 1975 138 NI BB NOT_NAMED 1975-11-25 15:00:00 TS 11.7584 81.5347 main 161 156 P________PP___ IO201975 11.7575 81.5350 XX 35 -5 11.7575 81.5350 TC 35 11.7603 81.5340 2 3 343
1975328N09085 1975 138 NI BB NOT_NAMED 1975-11-25 18:00:00 TS 11.9025 81.4991 main 156 152 O________OP___ jtwc_io IO201975 11.9000 81.5000 XX 35 -5 11.9000 81.5000 TC 35 11.9075 81.4974 2 3 354
1975328N09085 1975 138 NI BB NOT_NAMED 1975-11-25 21:00:00 TS 12.0503 81.4857 main 148 145 P________PP___ IO201975 12.0500 81.4850 XX 35 -5 12.0500 81.4850 TC 35 12.0509 81.4872 2 3 5
1975328N09085 1975 138 NI BB NOT_NAMED 1975-11-26 00:00:00 TS 12.2000 81.5000 main 145 143 O________OO___ jtwc_io IO201975 12.2000 81.5000 XX 35 -5 12.2000 81.5000 TC 35 12.2000 81.5000 4 3 7
1975328N09085 1975 138 NI BB NOT_NAMED 1975-11-26 03:00:00 TS 12.3496 81.5324 main 143 141 P________PP___ IO201975 12.3425 81.5425 XX 32 -5 12.3425 81.5425 TC 32 12.3637 81.5122 4 3 14
1975328N09085 1975 138 NI BB NOT_NAMED 1975-11-26 06:00:00 TS 12.5117 81.5825 main 152 151 O________OP___ jtwc_io IO201975 12.5000 81.6000 XX 30 -5 12.5000 81.6000 TC 30 12.5350 81.5476 4 4 15
1975328N09085 1975 138 NI BB NOT_NAMED 1975-11-26 09:00:00 TS 12.6996 81.6314 main 151 151 P________PP___ IO201975 12.6925 81.6425 XX 30 -5 12.6925 81.6425 TC 30 12.7137 81.6091 4 4 16
1975328N09085 1975 138 NI BB NOT_NAMED 1975-11-26 12:00:00 TS 12.9000 81.7000 main 158 155 O________OO___ jtwc_io IO201975 12.9000 81.7000 XX 30 -5 12.9000 81.7000 TC 30 12.9000 81.7000 4 4 21
1975328N09085 1975 138 NI BB NOT_NAMED 1975-11-26 15:00:00 TS 13.1003 81.7826 main 164 162 P________PP___ IO201975 13.1000 81.7775 XX 30 -5 13.1000 81.7775 TC 30 13.1008 81.7929 4 5 26
1975328N09085 1975 138 NI BB NOT_NAMED 1975-11-26 18:00:00 TS 13.3024 81.9059 main 173 173 O________OP___ jtwc_io IO201975 13.3000 81.9000 XX 30 -5 13.3000 81.9000 TC 30 13.3073 81.9176 4 5 35
1975328N09085 1975 138 NI BB NOT_NAMED 1975-11-26 21:00:00 TS 13.5034 82.0745 main 194 194 P________PP___ IO201975 13.5000 82.0700 XX 32 -5 13.5000 82.0700 TC 32 13.5101 82.0835 4 6 44
1975328N09085 1975 138 NI BB NOT_NAMED 1975-11-27 00:00:00 TS 13.7000 82.3000 main 216 216 O________OO___ jtwc_io IO201975 13.7000 82.3000 XX 35 -5 13.7000 82.3000 TC 35 13.7000 82.3000 2 6 51
1975328N09085 1975 138 NI BB NOT_NAMED 1975-11-27 03:00:00 TS 13.9049 82.5792 main 248 248 P________PP___ IO201975 13.9150 82.5775 XX 35 -5 13.9150 82.5775 TC 35 13.8849 82.5826 2 7 57
1975328N09085 1975 138 NI BB NOT_NAMED 1975-11-27 06:00:00 TS 14.0843 82.9041 main 277 277 O________OP___ jtwc_io IO201975 14.1000 82.9000 XX 35 -5 14.1000 82.9000 TC 35 14.0528 82.9122 2 7 65
1975328N09085 1975 138 NI BB NOT_NAMED 1975-11-27 09:00:00 TS 14.2131 83.2536 main 287 282 P________PP___ IO201975 14.2225 83.2500 XX 35 -5 14.2225 83.2500 TC 35 14.1942 83.2607 2 7 72
1975328N09085 1975 138 NI BB NOT_NAMED 1975-11-27 12:00:00 TS 14.3000 83.6000 main 292 292 O________OO___ jtwc_io IO201975 14.3000 83.6000 XX 35 -5 14.3000 83.6000 TC 35 14.3000 83.6000 2 7 77
1975328N09085 1975 138 NI BB NOT_NAMED 1975-11-27 15:00:00 TS 14.3622 83.9093 main 300 300 P________PP___ IO201975 14.3650 83.9150 XX 35 -5 14.3650 83.9150 TC 35 14.3568 83.8978 2 6 81
1975328N09085 1975 138 NI BB NOT_NAMED 1975-11-27 18:00:00 TS 14.3933 84.1935 main 319 319 O________OP___ jtwc_io IO201975 14.4000 84.2000 XX 35 -5 14.4000 84.2000 TC 35 14.3799 84.1804 2 5 86
1975328N09085 1975 138 NI BB NOT_NAMED 1975-11-27 21:00:00 TS 14.3960 84.4593 main 340 340 P________PP___ IO201975 14.4000 84.4650 XX 35 -5 14.4000 84.4650 TC 35 14.3880 84.4477 2 5 89
1975328N09085 1975 138 NI BB NOT_NAMED 1975-11-28 00:00:00 TS 14.4000 84.7000 main 356 356 O________OO___ jtwc_io IO201975 14.4000 84.7000 XX 35 -5 14.4000 84.7000 TC 35 14.4000 84.7000 2 4 84
1975328N09085 1975 138 NI BB NOT_NAMED 1975-11-28 03:00:00 TS 14.4425 84.9104 main 371 364 P________PP___ IO201975 14.4424 84.9000 XX 35 -5 14.4424 84.9000 TC 35 14.4426 84.9313 2 4 76
1975328N09085 1975 138 NI BB NOT_NAMED 1975-11-28 06:00:00 TS 14.4974 85.1167 main 381 381 O________OP___ jtwc_io IO201975 14.5000 85.1000 XX 35 -5 14.5000 85.1000 TC 35 14.4922 85.1500 2 4 76
1975328N09085 1975 138 NI BB NOT_NAMED 1975-11-28 09:00:00 TS 14.5486 85.3513 main 406 400 P________PP___ IO201975 14.5500 85.3425 XX 35 -5 14.5500 85.3425 TC 35 14.5457 85.3688 2 5 78
1975328N09085 1975 138 NI BB NOT_NAMED 1975-11-28 12:00:00 TS 14.6000 85.6000 main 418 418 O________OO___ jtwc_io IO201975 14.6000 85.6000 XX 35 -5 14.6000 85.6000 TC 35 14.6000 85.6000 2 5 78
1975328N09085 1975 138 NI BB NOT_NAMED 1975-11-28 15:00:00 TS 14.6499 85.8459 main 435 434 P________PP___ IO201975 14.6499 85.8425 XX 35 -5 14.6499 85.8425 TC 35 14.6499 85.8525 2 5 78
1975328N09085 1975 138 NI BB NOT_NAMED 1975-11-28 18:00:00 TS 14.7000 86.1067 main 448 448 O________OP___ jtwc_io IO201975 14.7000 86.1000 XX 35 -5 14.7000 86.1000 TC 35 14.6999 86.1201 2 5 79
1975328N09085 1975 138 NI BB NOT_NAMED 1975-11-28 21:00:00 TS 14.7499 86.3909 main 471 462 P________PP___ IO201975 14.7500 86.3850 XX 35 -5 14.7500 86.3850 TC 35 14.7499 86.4025 2 6 80
1975328N09085 1975 138 NI BB NOT_NAMED 1975-11-29 00:00:00 TS 14.8000 86.7000 main 479 479 O________OO___ jtwc_io IO201975 14.8000 86.7000 XX 35 -5 14.8000 86.7000 TC 35 14.8000 86.7000 2 6 80
1975328N09085 1975 138 NI BB NOT_NAMED 1975-11-29 03:00:00 TS 14.8582 87.0504 main 496 496 P________PP___ IO201975 14.8500 87.0500 XX 35 -5 14.8500 87.0500 TC 35 14.8746 87.0511 2 7 80
1975328N09085 1975 138 NI BB NOT_NAMED 1975-11-29 06:00:00 TS 14.9151 87.4032 main 518 518 O________OP___ jtwc_io IO201975 14.9000 87.4000 XX 35 -5 14.9000 87.4000 TC 35 14.9454 87.4097 2 7 80
1975328N09085 1975 138 NI BB NOT_NAMED 1975-11-29 09:00:00 TS 14.9745 87.7328 main 532 532 P________PP___ IO201975 14.9650 87.7300 XX 35 -5 14.9650 87.7300 TC 35 14.9934 87.7386 2 6 82
1975328N09085 1975 138 NI BB NOT_NAMED 1975-11-29 12:00:00 TS 15.0000 88.0000 main 555 555 O________OO___ jtwc_io IO201975 15.0000 88.0000 XX 35 -5 15.0000 88.0000 TC 35 15.0000 88.0000 2 4 91
1975328N09085 1975 138 NI BB NOT_NAMED 1975-11-29 15:00:00 TS 14.9703 88.1872 main 570 570 P________PP___ IO201975 14.9800 88.1950 XX 35 -5 14.9800 88.1950 TC 35 14.9510 88.1714 2 3 112
1975328N09085 1975 138 NI BB NOT_NAMED 1975-11-29 18:00:00 TS 14.8866 88.2901 main 586 586 O________OP___ jtwc_io IO201975 14.9000 88.3000 XX 35 -5 14.9000 88.3000 TC 35 14.8597 88.2702 2 3 149
1975328N09085 1975 138 NI BB NOT_NAMED 1975-11-29 21:00:00 TS 14.7562 88.3230 main 594 594 P________PP___ IO201975 14.7650 88.3300 XX 32 -5 14.7650 88.3300 TC 32 14.7386 88.3089 2 3 0
1975328N09085 1975 138 NI BB NOT_NAMED 1975-11-30 00:00:00 TS 14.6000 88.3000 main 610 610 O________OO___ jtwc_io IO201975 14.6000 88.3000 XX 30 -5 14.6000 88.3000 TC 30 14.6000 88.3000 1 3 191
1975328N09085 1975 138 NI BB NOT_NAMED 1975-11-30 03:00:00 TS 14.4453 88.2728 main 625 617 P________PP___ IO201975 14.4500 88.2650 XX 30 -5 14.4500 88.2650 TC 30 14.4359 88.2883 1 3 195
1975328N09085 1975 138 NI BB NOT_NAMED 1975-11-30 06:00:00 TS 14.2875 88.2108 main 626 626 O________OP___ jtwc_io IO201975 14.3000 88.2000 XX 30 -5 14.3000 88.2000 TC 30 14.2624 88.2323 1 4 204
1975328N09085 1975 138 NI BB NOT_NAMED 1975-11-30 09:00:00 TS 14.1209 88.1267 main 635 635 P________PP___ IO201975 14.1275 88.1225 XX 27 -5 14.1275 88.1225 TC 27 14.1077 88.1351 1 4 216
1975328N09085 1975 138 NI BB NOT_NAMED 1975-11-30 12:00:00 TS 14.0000 88.0000 main 636 622 O________OO___ jtwc_io IO201975 14.0000 88.0000 XX 25 -5 14.0000 88.0000 TC 25 14.0000 88.0000 1 3 243
1975328N09085 1975 138 NI BB NOT_NAMED 1975-11-30 15:00:00 TS 13.9689 87.8193 main 622 609 P________PP___ IO201975 13.9700 87.8150 XX 25 -5 13.9700 87.8150 TC 25 13.9667 87.8279 1 4 269
1975328N09085 1975 138 NI BB NOT_NAMED 1975-11-30 18:00:00 TS 13.9942 87.6075 main 609 596 O________OP___ jtwc_io IO201975 14.0000 87.6000 XX 25 -5 14.0000 87.6000 TC 25 13.9826 87.6226 1 4 280
1975328N09085 1975 138 NI BB NOT_NAMED 1975-11-30 21:00:00 TS 14.0391 87.3970 main 596 574 P________PP___ IO201975 14.0425 87.3925 XX 22 -5 14.0425 87.3925 TC 22 14.0323 87.4060 1 4 285
1975328N09085 1975 138 NI BB NOT_NAMED 1975-12-01 00:00:00 TS 14.1000 87.2000 main 574 568 O________OO___ jtwc_io IO201975 14.1000 87.2000 XX 20 -5 14.1000 87.2000 TC 20 14.1000 87.2000 1 4 287
1975328N09085 1975 138 NI BB NOT_NAMED 1975-12-01 03:00:00 TS 14.1417 87.0442 main 562 547 P________PP___ IO201975 14.1425 87.0425 XX 20 -5 14.1425 87.0425 TC 20 14.1402 87.0477 1 3 289
1975328N09085 1975 138 NI BB NOT_NAMED 1975-12-01 06:00:00 TS 14.1991 86.9024 main 547 532 O________OP___ jtwc_io IO201975 14.2000 86.9000 XX 20 -5 14.2000 86.9000 TC 20 14.1973 86.9072 1 3 297
1975328N09085 1975 138 NI BB NOT_NAMED 1975-12-01 09:00:00 TS 14.2836 86.7594 main 532 510 P________PP___ IO201975 14.2850 86.7575 XX -5 14.2850 86.7575 TC 14.2808 86.7632 1 4 304
1975328N09085 1975 138 NI BB NOT_NAMED 1975-12-01 12:00:00 TS 14.4000 86.6000 main 510 487 O________OO___ jtwc_io IO201975 14.4000 86.6000 -1 14.4000 86.6000 TC 14.4000 86.6000 1 4 307
1975328N09085 1975 138 NI BB NOT_NAMED 1975-12-01 15:00:00 TS 14.5386 86.4119 main 487 456 P________PP___ IO201975 14.5275 86.4149 -1 14.5275 86.4149 TC 14.5608 86.4060 1 5 309
1975328N09085 1975 138 NI BB NOT_NAMED 1975-12-01 18:00:00 TS 14.7184 86.1952 main 456 425 O________OP___ jtwc_io IO201975 14.7000 86.2000 -1 14.7000 86.2000 TC 14.7553 86.1856 1 6 313
1975328N09085 1975 138 NI BB NOT_NAMED 1975-12-01 21:00:00 TS 14.9458 85.9542 main 425 378 P________PP___ IO201975 14.9326 85.9577 -1 14.9326 85.9577 TC 14.9722 85.9474 1 7 315
1975328N09085 1975 138 NI BB NOT_NAMED 1975-12-02 00:00:00 TS 15.2000 85.7000 main 378 O________OO___ jtwc_io IO201975 15.2000 85.7000 -1 15.2000 85.7000 TC 15.2000 85.7000 6 7 316

About IBTrACS Database

This database is a web-friendly format of International Best Track Archive for Climate Stewardship (IBTrACS), a global best track data archive curated by NOAA dating back to 1842.

Updated: 2021-10-25